sensor_id;sensor_type;location;lat;lon;timestamp;temperature;humidity
27200;DHT22;14714;48.106;11.546;2023-09-30T00:01:22;16.20;99.90
27200;DHT22;14714;48.106;11.546;2023-09-30T00:03:49;16.20;99.90
27200;DHT22;14714;48.106;11.546;2023-09-30T00:06:16;16.10;99.90
27200;DHT22;14714;48.106;11.546;2023-09-30T00:08:44;16.10;99.90
27200;DHT22;14714;48.106;11.546;2023-09-30T00:11:15;16.10;99.90
27200;DHT22;14714;48.106;11.546;2023-09-30T00:13:43;16.00;99.90
27200;DHT22;14714;48.106;11.546;2023-09-30T00:16:10;15.90;99.90
27200;DHT22;14714;48.106;11.546;2023-09-30T00:18:37;15.90;99.90
27200;DHT22;14714;48.106;11.546;2023-09-30T00:21:04;15.80;99.90
27200;DHT22;14714;48.106;11.546;2023-09-30T00:23:32;15.80;99.90
27200;DHT22;14714;48.106;11.546;2023-09-30T00:25:59;15.70;99.90
27200;DHT22;14714;48.106;11.546;2023-09-30T00:28:27;15.70;99.90
27200;DHT22;14714;48.106;11.546;2023-09-30T00:30:55;15.70;99.90
27200;DHT22;14714;48.106;11.546;2023-09-30T00:33:21;15.70;99.90
27200;DHT22;14714;48.106;11.546;2023-09-30T00:35:48;15.80;99.90
27200;DHT22;14714;48.106;11.546;2023-09-30T00:38:15;15.80;99.90
27200;DHT22;14714;48.106;11.546;2023-09-30T00:40:49;15.90;99.90
27200;DHT22;14714;48.106;11.546;2023-09-30T00:43:19;15.90;99.90
27200;DHT22;14714;48.106;11.546;2023-09-30T00:45:48;15.90;99.90
27200;DHT22;14714;48.106;11.546;2023-09-30T00:48:18;16.00;99.90
27200;DHT22;14714;48.106;11.546;2023-09-30T00:50:45;16.00;99.90
27200;DHT22;14714;48.106;11.546;2023-09-30T00:53:13;16.00;99.90
27200;DHT22;14714;48.106;11.546;2023-09-30T00:55:40;15.90;99.90
27200;DHT22;14714;48.106;11.546;2023-09-30T00:58:07;15.90;99.90
27200;DHT22;14714;48.106;11.546;2023-09-30T01:00:35;15.90;99.90
27200;DHT22;14714;48.106;11.546;2023-09-30T01:03:02;15.90;99.90
27200;DHT22;14714;48.106;11.546;2023-09-30T01:05:31;15.80;99.90
27200;DHT22;14714;48.106;11.546;2023-09-30T01:07:58;15.80;99.90
27200;DHT22;14714;48.106;11.546;2023-09-30T01:10:27;15.80;99.90
27200;DHT22;14714;48.106;11.546;2023-09-30T01:12:54;15.70;99.90
27200;DHT22;14714;48.106;11.546;2023-09-30T01:15:21;15.70;99.90
27200;DHT22;14714;48.106;11.546;2023-09-30T01:17:48;15.70;99.90
27200;DHT22;14714;48.106;11.546;2023-09-30T01:20:15;15.70;99.90
27200;DHT22;14714;48.106;11.546;2023-09-30T01:22:47;15.70;99.90
27200;DHT22;14714;48.106;11.546;2023-09-30T01:25:14;15.70;99.90
27200;DHT22;14714;48.106;11.546;2023-09-30T01:27:41;15.70;99.90
27200;DHT22;14714;48.106;11.546;2023-09-30T01:30:08;15.80;99.90
27200;DHT22;14714;48.106;11.546;2023-09-30T01:32:38;15.80;99.90
27200;DHT22;14714;48.106;11.546;2023-09-30T01:35:05;15.80;99.90
27200;DHT22;14714;48.106;11.546;2023-09-30T01:37:32;15.80;99.90
27200;DHT22;14714;48.106;11.546;2023-09-30T01:39:59;15.80;99.90
27200;DHT22;14714;48.106;11.546;2023-09-30T01:42:26;15.80;99.90
27200;DHT22;14714;48.106;11.546;2023-09-30T01:44:53;15.80;99.90
27200;DHT22;14714;48.106;11.546;2023-09-30T01:47:21;15.80;99.90
27200;DHT22;14714;48.106;11.546;2023-09-30T01:49:48;15.80;99.90
27200;DHT22;14714;48.106;11.546;2023-09-30T01:52:15;15.70;99.90
27200;DHT22;14714;48.106;11.546;2023-09-30T01:54:41;15.70;99.90
27200;DHT22;14714;48.106;11.546;2023-09-30T01:57:08;15.70;99.90
27200;DHT22;14714;48.106;11.546;2023-09-30T01:59:36;15.70;99.90
27200;DHT22;14714;48.106;11.546;2023-09-30T02:02:03;15.70;99.90
27200;DHT22;14714;48.106;11.546;2023-09-30T02:04:30;15.70;99.90
27200;DHT22;14714;48.106;11.546;2023-09-30T02:06:57;15.70;99.90
27200;DHT22;14714;48.106;11.546;2023-09-30T02:09:24;15.70;99.90
27200;DHT22;14714;48.106;11.546;2023-09-30T02:11:51;15.60;99.90
27200;DHT22;14714;48.106;11.546;2023-09-30T02:14:18;15.60;99.90
27200;DHT22;14714;48.106;11.546;2023-09-30T02:16:45;15.50;99.90
27200;DHT22;14714;48.106;11.546;2023-09-30T02:19:13;15.40;99.90
27200;DHT22;14714;48.106;11.546;2023-09-30T02:21:39;15.40;99.90
27200;DHT22;14714;48.106;11.546;2023-09-30T02:24:07;15.40;99.90
27200;DHT22;14714;48.106;11.546;2023-09-30T02:26:34;15.40;99.90
27200;DHT22;14714;48.106;11.546;2023-09-30T02:29:00;15.40;99.90
27200;DHT22;14714;48.106;11.546;2023-09-30T02:31:27;15.40;99.90
27200;DHT22;14714;48.106;11.546;2023-09-30T02:33:54;15.40;99.90
27200;DHT22;14714;48.106;11.546;2023-09-30T02:36:22;15.40;99.90
27200;DHT22;14714;48.106;11.546;2023-09-30T02:38:48;15.40;99.90
27200;DHT22;14714;48.106;11.546;2023-09-30T02:41:16;15.40;99.90
27200;DHT22;14714;48.106;11.546;2023-09-30T02:43:43;15.40;99.90
27200;DHT22;14714;48.106;11.546;2023-09-30T02:46:10;15.40;99.90
27200;DHT22;14714;48.106;11.546;2023-09-30T02:48:39;15.40;99.90
27200;DHT22;14714;48.106;11.546;2023-09-30T02:51:10;15.40;99.90
27200;DHT22;14714;48.106;11.546;2023-09-30T02:53:37;15.40;99.90
27200;DHT22;14714;48.106;11.546;2023-09-30T02:56:04;15.40;99.90
27200;DHT22;14714;48.106;11.546;2023-09-30T02:58:31;15.40;99.90
27200;DHT22;14714;48.106;11.546;2023-09-30T03:00:58;15.40;99.90
27200;DHT22;14714;48.106;11.546;2023-09-30T03:03:26;15.40;99.90
27200;DHT22;14714;48.106;11.546;2023-09-30T03:05:54;15.30;99.90
27200;DHT22;14714;48.106;11.546;2023-09-30T03:08:21;15.30;99.90
27200;DHT22;14714;48.106;11.546;2023-09-30T03:10:48;15.30;99.90
27200;DHT22;14714;48.106;11.546;2023-09-30T03:13:15;15.20;99.90
27200;DHT22;14714;48.106;11.546;2023-09-30T03:15:42;15.20;99.90
27200;DHT22;14714;48.106;11.546;2023-09-30T03:18:09;15.20;99.90
27200;DHT22;14714;48.106;11.546;2023-09-30T03:20:36;15.20;99.90
27200;DHT22;14714;48.106;11.546;2023-09-30T03:23:07;15.20;99.90
27200;DHT22;14714;48.106;11.546;2023-09-30T03:25:35;15.10;99.90
27200;DHT22;14714;48.106;11.546;2023-09-30T03:28:02;15.10;99.90
27200;DHT22;14714;48.106;11.546;2023-09-30T03:30:32;15.10;99.90
27200;DHT22;14714;48.106;11.546;2023-09-30T03:32:59;15.10;99.90
27200;DHT22;14714;48.106;11.546;2023-09-30T03:35:26;15.10;99.90
27200;DHT22;14714;48.106;11.546;2023-09-30T03:37:53;15.00;99.90
27200;DHT22;14714;48.106;11.546;2023-09-30T03:40:20;14.90;99.90
27200;DHT22;14714;48.106;11.546;2023-09-30T03:42:55;14.90;99.90
27200;DHT22;14714;48.106;11.546;2023-09-30T03:45:22;14.80;99.90
27200;DHT22;14714;48.106;11.546;2023-09-30T03:47:48;14.80;99.90
27200;DHT22;14714;48.106;11.546;2023-09-30T03:50:16;14.80;99.90
27200;DHT22;14714;48.106;11.546;2023-09-30T03:52:44;14.80;99.90
27200;DHT22;14714;48.106;11.546;2023-09-30T03:55:14;14.80;99.90
27200;DHT22;14714;48.106;11.546;2023-09-30T03:57:48;14.90;99.90
27200;DHT22;14714;48.106;11.546;2023-09-30T04:00:16;14.90;99.90
27200;DHT22;14714;48.106;11.546;2023-09-30T04:02:46;14.90;99.90
27200;DHT22;14714;48.106;11.546;2023-09-30T04:05:17;14.90;99.90
27200;DHT22;14714;48.106;11.546;2023-09-30T04:07:45;14.90;99.90
27200;DHT22;14714;48.106;11.546;2023-09-30T04:10:13;15.00;99.90
27200;DHT22;14714;48.106;11.546;2023-09-30T04:12:41;15.00;99.90
27200;DHT22;14714;48.106;11.546;2023-09-30T04:15:08;15.00;99.90
27200;DHT22;14714;48.106;11.546;2023-09-30T04:17:38;15.00;99.90
27200;DHT22;14714;48.106;11.546;2023-09-30T04:20:07;15.10;99.90
27200;DHT22;14714;48.106;11.546;2023-09-30T04:22:38;15.10;99.90
27200;DHT22;14714;48.106;11.546;2023-09-30T04:25:05;15.10;99.90
27200;DHT22;14714;48.106;11.546;2023-09-30T04:27:35;15.10;99.90
27200;DHT22;14714;48.106;11.546;2023-09-30T04:30:04;15.10;99.90
27200;DHT22;14714;48.106;11.546;2023-09-30T04:32:36;15.10;99.90
27200;DHT22;14714;48.106;11.546;2023-09-30T04:35:04;15.00;99.90
27200;DHT22;14714;48.106;11.546;2023-09-30T04:37:31;15.00;99.90
27200;DHT22;14714;48.106;11.546;2023-09-30T04:39:58;15.00;99.90
27200;DHT22;14714;48.106;11.546;2023-09-30T04:42:25;15.00;99.90
27200;DHT22;14714;48.106;11.546;2023-09-30T04:44:55;14.90;99.90
27200;DHT22;14714;48.106;11.546;2023-09-30T04:47:22;14.90;99.90
27200;DHT22;14714;48.106;11.546;2023-09-30T04:49:50;14.80;99.90
27200;DHT22;14714;48.106;11.546;2023-09-30T04:52:18;14.80;99.90
27200;DHT22;14714;48.106;11.546;2023-09-30T04:54:44;14.80;99.90
27200;DHT22;14714;48.106;11.546;2023-09-30T04:57:12;14.80;99.90
27200;DHT22;14714;48.106;11.546;2023-09-30T04:59:39;14.70;99.90
27200;DHT22;14714;48.106;11.546;2023-09-30T05:02:05;14.70;99.90
27200;DHT22;14714;48.106;11.546;2023-09-30T05:04:32;14.70;99.90
27200;DHT22;14714;48.106;11.546;2023-09-30T05:06:59;14.60;99.90
27200;DHT22;14714;48.106;11.546;2023-09-30T05:09:26;14.60;99.90
27200;DHT22;14714;48.106;11.546;2023-09-30T05:11:54;14.50;99.90
27200;DHT22;14714;48.106;11.546;2023-09-30T05:14:21;14.50;99.90
27200;DHT22;14714;48.106;11.546;2023-09-30T05:16:48;14.40;99.90
27200;DHT22;14714;48.106;11.546;2023-09-30T05:19:15;14.40;99.90
27200;DHT22;14714;48.106;11.546;2023-09-30T05:21:43;14.40;99.90
27200;DHT22;14714;48.106;11.546;2023-09-30T05:24:11;14.40;99.90
27200;DHT22;14714;48.106;11.546;2023-09-30T05:26:38;14.30;99.90
27200;DHT22;14714;48.106;11.546;2023-09-30T05:29:05;14.40;99.90
27200;DHT22;14714;48.106;11.546;2023-09-30T05:31:32;14.40;99.90
27200;DHT22;14714;48.106;11.546;2023-09-30T05:33:59;14.40;99.90
27200;DHT22;14714;48.106;11.546;2023-09-30T05:36:27;14.40;99.90
27200;DHT22;14714;48.106;11.546;2023-09-30T05:38:55;14.50;99.90
27200;DHT22;14714;48.106;11.546;2023-09-30T05:41:22;14.50;99.90
27200;DHT22;14714;48.106;11.546;2023-09-30T05:43:49;14.60;99.90
27200;DHT22;14714;48.106;11.546;2023-09-30T05:46:16;14.60;99.90
27200;DHT22;14714;48.106;11.546;2023-09-30T05:48:43;14.70;99.90
27200;DHT22;14714;48.106;11.546;2023-09-30T05:51:10;14.70;99.90
27200;DHT22;14714;48.106;11.546;2023-09-30T05:53:41;14.70;99.90
27200;DHT22;14714;48.106;11.546;2023-09-30T05:56:09;14.70;99.90
27200;DHT22;14714;48.106;11.546;2023-09-30T05:58:42;14.80;99.90
27200;DHT22;14714;48.106;11.546;2023-09-30T06:01:09;14.80;99.90
27200;DHT22;14714;48.106;11.546;2023-09-30T06:03:42;14.80;99.90
27200;DHT22;14714;48.106;11.546;2023-09-30T06:06:12;14.90;99.90
27200;DHT22;14714;48.106;11.546;2023-09-30T06:08:40;15.00;99.90
27200;DHT22;14714;48.106;11.546;2023-09-30T06:11:07;15.00;99.90
27200;DHT22;14714;48.106;11.546;2023-09-30T06:13:33;15.10;99.90
27200;DHT22;14714;48.106;11.546;2023-09-30T06:16:01;15.20;99.90
27200;DHT22;14714;48.106;11.546;2023-09-30T06:18:29;15.30;99.90
27200;DHT22;14714;48.106;11.546;2023-09-30T06:20:55;15.50;99.90
27200;DHT22;14714;48.106;11.546;2023-09-30T06:23:24;15.60;99.90
27200;DHT22;14714;48.106;11.546;2023-09-30T06:25:51;15.70;99.90
27200;DHT22;14714;48.106;11.546;2023-09-30T06:28:18;15.70;99.90
27200;DHT22;14714;48.106;11.546;2023-09-30T06:30:49;15.90;99.90
27200;DHT22;14714;48.106;11.546;2023-09-30T06:33:17;16.00;99.90
27200;DHT22;14714;48.106;11.546;2023-09-30T06:35:44;16.20;99.90
27200;DHT22;14714;48.106;11.546;2023-09-30T06:38:18;16.30;99.90
27200;DHT22;14714;48.106;11.546;2023-09-30T06:40:45;16.60;99.90
27200;DHT22;14714;48.106;11.546;2023-09-30T06:43:15;16.70;99.90
27200;DHT22;14714;48.106;11.546;2023-09-30T06:45:45;16.90;99.90
27200;DHT22;14714;48.106;11.546;2023-09-30T06:48:13;17.10;99.90
27200;DHT22;14714;48.106;11.546;2023-09-30T06:50:47;17.20;99.90
27200;DHT22;14714;48.106;11.546;2023-09-30T06:53:18;17.40;99.90
27200;DHT22;14714;48.106;11.546;2023-09-30T06:55:45;17.60;99.90
27200;DHT22;14714;48.106;11.546;2023-09-30T06:58:12;17.70;99.90
27200;DHT22;14714;48.106;11.546;2023-09-30T07:00:40;17.90;99.90
27200;DHT22;14714;48.106;11.546;2023-09-30T07:03:08;18.10;99.90
27200;DHT22;14714;48.106;11.546;2023-09-30T07:05:36;18.20;99.90
27200;DHT22;14714;48.106;11.546;2023-09-30T07:08:03;18.30;99.90
27200;DHT22;14714;48.106;11.546;2023-09-30T07:10:30;18.30;99.90
27200;DHT22;14714;48.106;11.546;2023-09-30T07:12:57;18.20;99.90
27200;DHT22;14714;48.106;11.546;2023-09-30T07:15:24;18.30;99.90
27200;DHT22;14714;48.106;11.546;2023-09-30T07:17:51;18.50;99.90
27200;DHT22;14714;48.106;11.546;2023-09-30T07:20:18;18.60;99.90
27200;DHT22;14714;48.106;11.546;2023-09-30T07:22:46;18.50;99.90
27200;DHT22;14714;48.106;11.546;2023-09-30T07:25:28;18.40;99.90
27200;DHT22;14714;48.106;11.546;2023-09-30T07:27:58;18.50;99.90
27200;DHT22;14714;48.106;11.546;2023-09-30T07:30:25;18.70;99.90
27200;DHT22;14714;48.106;11.546;2023-09-30T07:32:52;18.90;99.90
27200;DHT22;14714;48.106;11.546;2023-09-30T07:35:19;19.10;99.90
27200;DHT22;14714;48.106;11.546;2023-09-30T07:37:46;19.30;99.90
27200;DHT22;14714;48.106;11.546;2023-09-30T07:40:13;19.30;99.90
27200;DHT22;14714;48.106;11.546;2023-09-30T07:42:40;19.20;99.90
27200;DHT22;14714;48.106;11.546;2023-09-30T07:45:08;19.10;99.90
27200;DHT22;14714;48.106;11.546;2023-09-30T07:47:35;19.00;99.90
27200;DHT22;14714;48.106;11.546;2023-09-30T07:50:03;19.00;99.90
27200;DHT22;14714;48.106;11.546;2023-09-30T07:52:37;19.10;99.90
27200;DHT22;14714;48.106;11.546;2023-09-30T07:55:06;19.30;99.90
27200;DHT22;14714;48.106;11.546;2023-09-30T07:57:33;19.40;99.90
27200;DHT22;14714;48.106;11.546;2023-09-30T08:00:00;19.40;99.90
27200;DHT22;14714;48.106;11.546;2023-09-30T08:02:28;19.40;99.90
27200;DHT22;14714;48.106;11.546;2023-09-30T08:05:00;19.30;99.90
27200;DHT22;14714;48.106;11.546;2023-09-30T08:07:27;19.30;99.90
27200;DHT22;14714;48.106;11.546;2023-09-30T08:09:54;19.50;99.90
27200;DHT22;14714;48.106;11.546;2023-09-30T08:12:20;19.80;99.90
27200;DHT22;14714;48.106;11.546;2023-09-30T08:14:47;20.10;99.90
27200;DHT22;14714;48.106;11.546;2023-09-30T08:17:15;20.90;99.90
27200;DHT22;14714;48.106;11.546;2023-09-30T08:19:44;21.30;99.90
27200;DHT22;14714;48.106;11.546;2023-09-30T08:22:11;21.40;99.90
27200;DHT22;14714;48.106;11.546;2023-09-30T08:24:37;21.40;99.90
27200;DHT22;14714;48.106;11.546;2023-09-30T08:27:04;21.30;99.90
27200;DHT22;14714;48.106;11.546;2023-09-30T08:29:35;21.70;99.90
27200;DHT22;14714;48.106;11.546;2023-09-30T08:32:05;22.80;99.90
27200;DHT22;14714;48.106;11.546;2023-09-30T08:34:32;24.30;99.90
27200;DHT22;14714;48.106;11.546;2023-09-30T08:37:00;25.70;97.00
27200;DHT22;14714;48.106;11.546;2023-09-30T08:39:27;26.80;92.70
27200;DHT22;14714;48.106;11.546;2023-09-30T08:41:57;27.00;84.60
27200;DHT22;14714;48.106;11.546;2023-09-30T08:44:29;26.30;82.30
27200;DHT22;14714;48.106;11.546;2023-09-30T08:46:56;25.60;85.10
27200;DHT22;14714;48.106;11.546;2023-09-30T08:49:25;24.90;85.00
27200;DHT22;14714;48.106;11.546;2023-09-30T08:51:55;24.30;89.40
27200;DHT22;14714;48.106;11.546;2023-09-30T08:54:25;24.00;89.00
27200;DHT22;14714;48.106;11.546;2023-09-30T08:56:52;23.60;91.00
27200;DHT22;14714;48.106;11.546;2023-09-30T08:59:19;23.30;91.70
27200;DHT22;14714;48.106;11.546;2023-09-30T09:01:46;23.20;91.50
27200;DHT22;14714;48.106;11.546;2023-09-30T09:04:13;23.00;92.20
27200;DHT22;14714;48.106;11.546;2023-09-30T09:06:41;22.90;92.80
27200;DHT22;14714;48.106;11.546;2023-09-30T09:09:16;23.00;92.50
27200;DHT22;14714;48.106;11.546;2023-09-30T09:11:46;23.20;92.60
27200;DHT22;14714;48.106;11.546;2023-09-30T09:14:13;23.80;90.90
27200;DHT22;14714;48.106;11.546;2023-09-30T09:16:54;24.20;90.40
27200;DHT22;14714;48.106;11.546;2023-09-30T09:19:22;25.10;87.10
27200;DHT22;14714;48.106;11.546;2023-09-30T09:21:57;26.10;84.80
27200;DHT22;14714;48.106;11.546;2023-09-30T09:24:36;26.80;78.00
27200;DHT22;14714;48.106;11.546;2023-09-30T09:27:07;27.00;73.60
27200;DHT22;14714;48.106;11.546;2023-09-30T09:29:38;26.40;75.20
27200;DHT22;14714;48.106;11.546;2023-09-30T09:32:13;25.70;77.20
27200;DHT22;14714;48.106;11.546;2023-09-30T09:34:42;24.90;79.40
27200;DHT22;14714;48.106;11.546;2023-09-30T09:37:13;24.20;83.00
27200;DHT22;14714;48.106;11.546;2023-09-30T09:39:56;23.70;84.10
27200;DHT22;14714;48.106;11.546;2023-09-30T09:44:54;22.40;90.80
27200;DHT22;14714;48.106;11.546;2023-09-30T09:47:22;22.10;91.30
27200;DHT22;14714;48.106;11.546;2023-09-30T09:49:50;22.00;91.10
27200;DHT22;14714;48.106;11.546;2023-09-30T09:52:20;22.10;91.10
27200;DHT22;14714;48.106;11.546;2023-09-30T09:54:47;22.70;90.20
27200;DHT22;14714;48.106;11.546;2023-09-30T09:57:17;23.40;85.20
27200;DHT22;14714;48.106;11.546;2023-09-30T09:59:45;24.00;83.20
27200;DHT22;14714;48.106;11.546;2023-09-30T10:02:16;24.70;81.20
27200;DHT22;14714;48.106;11.546;2023-09-30T10:04:45;25.20;78.80
27200;DHT22;14714;48.106;11.546;2023-09-30T10:07:26;25.50;76.40
27200;DHT22;14714;48.106;11.546;2023-09-30T10:09:55;25.70;76.50
27200;DHT22;14714;48.106;11.546;2023-09-30T10:12:25;25.80;75.20
27200;DHT22;14714;48.106;11.546;2023-09-30T10:14:52;25.60;73.90
27200;DHT22;14714;48.106;11.546;2023-09-30T10:17:19;25.30;74.00
27200;DHT22;14714;48.106;11.546;2023-09-30T10:20:06;25.00;74.60
27200;DHT22;14714;48.106;11.546;2023-09-30T10:22:33;24.60;75.30
27200;DHT22;14714;48.106;11.546;2023-09-30T10:25:01;24.40;74.70
27200;DHT22;14714;48.106;11.546;2023-09-30T10:27:48;24.20;76.50
27200;DHT22;14714;48.106;11.546;2023-09-30T10:30:15;24.00;76.00
27200;DHT22;14714;48.106;11.546;2023-09-30T10:40:57;23.90;80.80
27200;DHT22;14714;48.106;11.546;2023-09-30T10:43:35;23.90;79.80
27200;DHT22;14714;48.106;11.546;2023-09-30T10:46:03;23.90;81.10
27200;DHT22;14714;48.106;11.546;2023-09-30T10:48:34;23.80;79.30
27200;DHT22;14714;48.106;11.546;2023-09-30T10:51:14;23.80;77.80
27200;DHT22;14714;48.106;11.546;2023-09-30T10:53:44;23.60;78.20
27200;DHT22;14714;48.106;11.546;2023-09-30T10:56:12;23.50;78.90
27200;DHT22;14714;48.106;11.546;2023-09-30T10:58:47;23.30;79.50
27200;DHT22;14714;48.106;11.546;2023-09-30T11:01:16;23.10;81.30
27200;DHT22;14714;48.106;11.546;2023-09-30T11:03:45;23.00;82.00
27200;DHT22;14714;48.106;11.546;2023-09-30T11:06:17;22.90;80.70
27200;DHT22;14714;48.106;11.546;2023-09-30T11:08:58;22.90;81.10
27200;DHT22;14714;48.106;11.546;2023-09-30T11:11:39;22.90;80.20
27200;DHT22;14714;48.106;11.546;2023-09-30T11:14:23;23.00;79.10
27200;DHT22;14714;48.106;11.546;2023-09-30T11:16:56;23.10;79.60
27200;DHT22;14714;48.106;11.546;2023-09-30T11:19:23;23.00;77.60
27200;DHT22;14714;48.106;11.546;2023-09-30T11:21:54;22.90;82.00
27200;DHT22;14714;48.106;11.546;2023-09-30T11:24:22;22.80;82.10
27200;DHT22;14714;48.106;11.546;2023-09-30T11:26:53;22.80;80.90
27200;DHT22;14714;48.106;11.546;2023-09-30T11:29:20;22.80;78.80
27200;DHT22;14714;48.106;11.546;2023-09-30T11:31:49;22.60;77.60
27200;DHT22;14714;48.106;11.546;2023-09-30T11:34:18;22.40;76.70
27200;DHT22;14714;48.106;11.546;2023-09-30T11:36:53;22.30;76.30
27200;DHT22;14714;48.106;11.546;2023-09-30T11:39:27;22.20;79.00
27200;DHT22;14714;48.106;11.546;2023-09-30T11:41:55;22.10;84.50
27200;DHT22;14714;48.106;11.546;2023-09-30T11:44:24;22.00;86.00
27200;DHT22;14714;48.106;11.546;2023-09-30T11:46:54;22.00;82.50
27200;DHT22;14714;48.106;11.546;2023-09-30T11:49:26;22.00;83.20
27200;DHT22;14714;48.106;11.546;2023-09-30T11:51:57;22.00;81.20
27200;DHT22;14714;48.106;11.546;2023-09-30T11:54:32;22.00;80.30
27200;DHT22;14714;48.106;11.546;2023-09-30T11:57:03;22.10;81.90
27200;DHT22;14714;48.106;11.546;2023-09-30T11:59:30;22.10;81.10
27200;DHT22;14714;48.106;11.546;2023-09-30T12:01:58;22.20;82.60
27200;DHT22;14714;48.106;11.546;2023-09-30T12:04:44;22.30;78.90
27200;DHT22;14714;48.106;11.546;2023-09-30T12:07:12;22.30;79.70
27200;DHT22;14714;48.106;11.546;2023-09-30T12:09:39;22.30;79.10
27200;DHT22;14714;48.106;11.546;2023-09-30T12:12:08;22.20;78.20
27200;DHT22;14714;48.106;11.546;2023-09-30T12:14:40;22.00;78.00
27200;DHT22;14714;48.106;11.546;2023-09-30T12:17:07;21.80;79.70
27200;DHT22;14714;48.106;11.546;2023-09-30T12:19:39;21.60;80.50
27200;DHT22;14714;48.106;11.546;2023-09-30T12:22:06;21.50;79.40
27200;DHT22;14714;48.106;11.546;2023-09-30T12:24:33;21.40;82.00
27200;DHT22;14714;48.106;11.546;2023-09-30T12:27:00;21.30;79.90
27200;DHT22;14714;48.106;11.546;2023-09-30T12:29:28;21.20;80.90
27200;DHT22;14714;48.106;11.546;2023-09-30T12:31:55;21.10;79.70
27200;DHT22;14714;48.106;11.546;2023-09-30T12:34:22;21.00;80.50
27200;DHT22;14714;48.106;11.546;2023-09-30T12:36:54;21.00;81.80
27200;DHT22;14714;48.106;11.546;2023-09-30T12:39:25;21.00;82.70
27200;DHT22;14714;48.106;11.546;2023-09-30T12:41:54;20.90;82.60
27200;DHT22;14714;48.106;11.546;2023-09-30T12:44:21;20.90;80.60
27200;DHT22;14714;48.106;11.546;2023-09-30T12:46:50;20.90;80.90
27200;DHT22;14714;48.106;11.546;2023-09-30T12:49:17;20.90;81.00
27200;DHT22;14714;48.106;11.546;2023-09-30T12:51:45;20.80;79.90
27200;DHT22;14714;48.106;11.546;2023-09-30T12:54:13;20.80;80.90
27200;DHT22;14714;48.106;11.546;2023-09-30T12:56:41;20.80;80.80
27200;DHT22;14714;48.106;11.546;2023-09-30T12:59:09;20.80;81.50
27200;DHT22;14714;48.106;11.546;2023-09-30T13:01:36;20.80;81.10
27200;DHT22;14714;48.106;11.546;2023-09-30T13:04:03;20.80;80.60
27200;DHT22;14714;48.106;11.546;2023-09-30T13:06:35;20.80;84.00
27200;DHT22;14714;48.106;11.546;2023-09-30T13:09:03;20.90;85.70
27200;DHT22;14714;48.106;11.546;2023-09-30T13:11:38;21.00;81.30
27200;DHT22;14714;48.106;11.546;2023-09-30T13:14:04;21.10;80.00
27200;DHT22;14714;48.106;11.546;2023-09-30T13:16:31;21.20;81.10
27200;DHT22;14714;48.106;11.546;2023-09-30T13:18:59;21.40;78.70
27200;DHT22;14714;48.106;11.546;2023-09-30T13:21:26;21.50;78.80
27200;DHT22;14714;48.106;11.546;2023-09-30T13:23:54;21.60;78.40
27200;DHT22;14714;48.106;11.546;2023-09-30T13:26:20;21.70;79.00
27200;DHT22;14714;48.106;11.546;2023-09-30T13:28:47;21.80;79.10
27200;DHT22;14714;48.106;11.546;2023-09-30T13:31:14;21.80;78.70
27200;DHT22;14714;48.106;11.546;2023-09-30T13:33:41;21.70;78.80
27200;DHT22;14714;48.106;11.546;2023-09-30T13:36:08;21.80;79.10
27200;DHT22;14714;48.106;11.546;2023-09-30T13:38:36;21.80;79.50
27200;DHT22;14714;48.106;11.546;2023-09-30T13:41:03;21.80;79.50
27200;DHT22;14714;48.106;11.546;2023-09-30T13:43:30;21.80;78.00
27200;DHT22;14714;48.106;11.546;2023-09-30T13:46:02;21.70;79.20
27200;DHT22;14714;48.106;11.546;2023-09-30T13:48:29;21.70;84.00
27200;DHT22;14714;48.106;11.546;2023-09-30T13:51:06;21.70;84.40
27200;DHT22;14714;48.106;11.546;2023-09-30T13:53:33;21.70;81.40
27200;DHT22;14714;48.106;11.546;2023-09-30T14:03:48;21.50;80.70
27200;DHT22;14714;48.106;11.546;2023-09-30T14:06:15;21.40;81.70
27200;DHT22;14714;48.106;11.546;2023-09-30T14:08:41;21.30;81.50
27200;DHT22;14714;48.106;11.546;2023-09-30T14:11:11;21.30;81.20
27200;DHT22;14714;48.106;11.546;2023-09-30T14:13:39;21.20;81.90
27200;DHT22;14714;48.106;11.546;2023-09-30T14:16:11;21.20;82.80
27200;DHT22;14714;48.106;11.546;2023-09-30T14:18:43;21.20;83.50
27200;DHT22;14714;48.106;11.546;2023-09-30T14:21:14;21.10;83.50
27200;DHT22;14714;48.106;11.546;2023-09-30T14:23:44;21.20;84.40
27200;DHT22;14714;48.106;11.546;2023-09-30T14:26:13;21.20;85.50
27200;DHT22;14714;48.106;11.546;2023-09-30T14:28:42;21.20;86.30
27200;DHT22;14714;48.106;11.546;2023-09-30T14:31:10;21.20;85.50
27200;DHT22;14714;48.106;11.546;2023-09-30T14:33:40;21.10;86.70
27200;DHT22;14714;48.106;11.546;2023-09-30T14:36:09;21.10;86.70
27200;DHT22;14714;48.106;11.546;2023-09-30T14:38:40;21.00;86.40
27200;DHT22;14714;48.106;11.546;2023-09-30T14:41:09;20.90;86.10
27200;DHT22;14714;48.106;11.546;2023-09-30T14:43:40;20.80;86.10
27200;DHT22;14714;48.106;11.546;2023-09-30T14:46:12;20.80;87.60
27200;DHT22;14714;48.106;11.546;2023-09-30T14:48:43;20.70;87.50
27200;DHT22;14714;48.106;11.546;2023-09-30T14:51:25;20.70;87.90
27200;DHT22;14714;48.106;11.546;2023-09-30T14:54:04;20.70;87.40
27200;DHT22;14714;48.106;11.546;2023-09-30T14:56:42;20.70;88.30
27200;DHT22;14714;48.106;11.546;2023-09-30T14:59:15;20.70;88.80
27200;DHT22;14714;48.106;11.546;2023-09-30T15:01:47;20.70;88.30
27200;DHT22;14714;48.106;11.546;2023-09-30T15:04:19;20.70;85.40
27200;DHT22;14714;48.106;11.546;2023-09-30T15:06:59;20.70;88.70
27200;DHT22;14714;48.106;11.546;2023-09-30T15:09:30;20.70;90.00
27200;DHT22;14714;48.106;11.546;2023-09-30T15:12:02;20.70;88.10
27200;DHT22;14714;48.106;11.546;2023-09-30T15:14:33;20.70;85.40
27200;DHT22;14714;48.106;11.546;2023-09-30T15:17:14;20.60;86.20
27200;DHT22;14714;48.106;11.546;2023-09-30T15:19:46;20.60;84.90
27200;DHT22;14714;48.106;11.546;2023-09-30T15:22:20;20.50;85.70
27200;DHT22;14714;48.106;11.546;2023-09-30T15:24:52;20.40;85.10
27200;DHT22;14714;48.106;11.546;2023-09-30T15:27:24;20.40;86.10
27200;DHT22;14714;48.106;11.546;2023-09-30T15:30:03;20.30;84.00
27200;DHT22;14714;48.106;11.546;2023-09-30T15:32:35;20.20;85.60
27200;DHT22;14714;48.106;11.546;2023-09-30T15:35:18;20.20;88.20
27200;DHT22;14714;48.106;11.546;2023-09-30T15:37:50;20.10;88.20
27200;DHT22;14714;48.106;11.546;2023-09-30T15:40:56;20.10;89.40
27200;DHT22;14714;48.106;11.546;2023-09-30T15:43:47;20.00;88.20
27200;DHT22;14714;48.106;11.546;2023-09-30T15:46:21;19.90;88.40